Track Ильченко Даниил

Time Latitude Longitude Accuracy (66% radius in meters) Altitude (meters) Speed (km/hour) Bearing (degrees) Battery (%) GPS flag
06:59:39 57.213099 60.118104 0 0 0 0 1 delete
06:59:31 57.213206 60.117835 0 0 0 0 1 delete
06:59:22 57.213244 60.117643 0 0 0 0 1 delete
06:59:17 57.213288 60.117502 0 0 0 0 1 delete
06:59:09 57.213432 60.117254 0 0 0 0 1 delete
06:59:08 57.213437 60.117197 0 0 0 0 1 delete
06:59:02 57.213365 60.116881 0 0 0 0 1 delete
06:58:57 57.213190 60.116833 0 0 0 0 1 delete
06:58:54 57.213139 60.116719 0 0 0 0 1 delete
06:58:48 57.213045 60.116509 0 0 0 0 1 delete
06:58:45 57.213041 60.116385 0 0 0 0 1 delete
06:58:44 57.213050 60.116332 0 0 0 0 1 delete
06:58:38 57.212985 60.116026 0 0 0 0 1 delete
06:58:33 57.213018 60.115811 0 0 0 0 1 delete
06:58:32 57.213024 60.115761 0 0 0 0 1 delete
06:58:26 57.213006 60.115416 0 0 0 0 1 delete
06:58:20 57.213085 60.115083 0 0 0 0 1 delete
06:58:13 57.213178 60.114800 0 0 0 0 1 delete
06:58:10 57.213111 60.114690 0 0 0 0 1 delete
06:58:04 57.213015 60.114401 0 0 0 0 1 delete
06:57:56 57.212879 60.114141 0 0 0 0 1 delete
06:57:51 57.212703 60.114168 0 0 0 0 1 delete
06:57:46 57.212554 60.114005 0 0 0 0 1 delete
06:57:43 57.212495 60.113919 0 0 0 0 1 delete
06:57:37 57.212487 60.113602 0 0 0 0 1 delete
06:57:32 57.212357 60.113368 0 0 0 0 1 delete
06:57:29 57.212359 60.113206 0 0 0 0 1 delete
06:57:24 57.212349 60.112878 0 0 0 0 1 delete
06:57:19 57.212203 60.112889 0 0 0 0 1 delete
06:57:17 57.212162 60.112805 0 0 0 0 1 delete
06:57:14 57.212098 60.112661 0 0 0 0 1 delete
06:57:08 57.211909 60.112677 0 0 0 0 1 delete
06:57:01 57.211817 60.112379 0 0 0 0 1 delete
06:56:59 57.211795 60.112307 0 0 0 0 1 delete
06:56:52 57.211734 60.111991 0 0 0 0 1 delete
06:56:48 57.211712 60.111934 0 0 0 0 1 delete
06:56:46 57.211729 60.111960 0 0 0 0 1 delete
06:56:44 57.211747 60.112029 0 0 0 0 1 delete
06:56:36 57.211717 60.112368 0 0 0 0 1 delete
06:56:29 57.211653 60.112684 0 0 0 0 1 delete
06:56:23 57.211496 60.112848 0 0 0 0 1 delete
06:56:18 57.211313 60.112896 0 0 0 0 1 delete
06:56:12 57.211125 60.112732 0 0 0 0 1 delete
06:56:07 57.210978 60.112538 0 0 0 0 1 delete
06:56:01 57.210794 60.112365 0 0 0 0 1 delete
06:55:57 57.210625 60.112236 0 0 0 0 1 delete
06:55:52 57.210412 60.112253 0 0 0 0 1 delete
06:55:50 57.210338 60.112321 0 0 0 0 1 delete
06:55:45 57.210208 60.112564 0 0 0 0 1 delete
06:55:37 57.210310 60.112861 0 0 0 0 1 delete